Terminal Aerodrome Forecast
Issued by NWS

Home | Current Version | Previous Version | Text Only | Print | Product List | Glossary On
Versions: 1 2 3 4 5 6 7 8 9 10 11 12 13 14 15
000
FTAK31 PANC 271141
TAFAGK
TAF
PAGK 271141Z 2712/2812 15010KT P6SM SCT050 BKN070
     FM271800 16012G22KT P6SM SCT035 OVC050
     FM272300 16015G25KT P6SM SCT050 BKN070
     FM280500 15008KT P6SM SCT080 OVC100=

USA.gov is the U.S. government's official web portal to all federal, state and local government web resources and services.